Time;durP1;ratioP1;P1;durP2;ratioP2;P2;SDS_P1;SDS_P2;PMS_P1;PMS_P2;Temp;Humidity;BMP_temperature;BMP_pressure;BME280_temperature;BME280_humidity;BME280_pressure;Samples;Min_cycle;Max_cycle;Signal;HPM_P1;HPM_P2
2022/05/04 00:01:57;;;;;;;6.82;3.00;;;;;;;;;;5111322;28;20015;-54
2022/05/04 00:04:23;;;;;;;6.88;2.42;;;;;;;;;;5111425;28;20474;-55
2022/05/04 00:06:49;;;;;;;6.05;2.33;;;;;;;;;;5111227;28;20062;-51
2022/05/04 00:09:15;;;;;;;6.18;2.05;;;;;;;;;;5111290;28;20561;-52
2022/05/04 00:11:44;;;;;;;6.93;2.08;;;;;;;;;;5111053;28;20027;-52
2022/05/04 00:14:10;;;;;;;5.97;2.00;;;;;;;;;;5111340;28;20032;-54
2022/05/04 00:16:36;;;;;;;6.93;2.38;;;;;;;;;;5110980;28;20409;-51
2022/05/04 00:19:02;;;;;;;5.38;1.90;;;;;;;;;;5111308;28;20031;-52
2022/05/04 00:21:28;;;;;;;4.88;1.90;;;;;;;;;;5109970;28;20117;-54
2022/05/04 00:23:54;;;;;;;7.63;2.10;;;;;;;;;;5110285;28;20228;-54
2022/05/04 00:26:20;;;;;;;6.18;2.00;;;;;;;;;;5110976;28;20047;-52
2022/05/04 00:28:46;;;;;;;4.50;2.13;;;;;;;;;;5111043;27;20092;-50
2022/05/04 00:31:12;;;;;;;6.82;2.25;;;;;;;;;;5110685;28;20825;-52
2022/05/04 00:33:38;;;;;;;6.28;2.05;;;;;;;;;;5110795;28;20035;-53
2022/05/04 00:36:04;;;;;;;6.53;2.10;;;;;;;;;;5110105;28;20054;-53
2022/05/04 00:38:30;;;;;;;7.47;2.13;;;;;;;;;;5111012;28;20028;-48
2022/05/04 00:40:56;;;;;;;4.88;1.90;;;;;;;;;;5109615;28;20023;-55
2022/05/04 00:43:26;;;;;;;6.93;2.25;;;;;;;;;;5110243;28;20058;-51
2022/05/04 00:45:52;;;;;;;;;;;;;;;;;;5110803;28;20034;-55
2022/05/04 00:48:18;;;;;;;4.43;2.00;;;;;;;;;;5110411;28;20318;-52
2022/05/04 00:50:45;;;;;;;4.85;1.73;;;;;;;;;;5109869;28;20033;-51
2022/05/04 00:53:11;;;;;;;5.15;2.17;;;;;;;;;;5109916;28;20507;-54
2022/05/04 00:55:37;;;;;;;5.25;2.05;;;;;;;;;;5109898;28;20020;-55
2022/05/04 01:00:51;;;;;;;5.22;1.90;;;;;;;;;;5108394;28;20081;-54
2022/05/04 01:03:18;;;;;;;5.63;2.28;;;;;;;;;;5109573;28;20047;-53
2022/05/04 01:05:44;;;;;;;5.78;2.17;;;;;;;;;;5109813;28;20026;-55
2022/05/04 01:08:10;;;;;;;5.18;1.85;;;;;;;;;;5109890;28;20023;-50
2022/05/04 01:10:44;;;;;;;5.22;2.28;;;;;;;;;;5110152;28;20020;-52
2022/05/04 01:13:10;;;;;;;6.65;2.67;;;;;;;;;;5108317;28;20099;-51
2022/05/04 01:15:36;;;;;;;8.68;2.30;;;;;;;;;;5109618;28;20378;-55
2022/05/04 01:18:03;;;;;;;5.00;2.00;;;;;;;;;;5109755;28;20019;-51
2022/05/04 01:20:29;;;;;;;4.07;1.85;;;;;;;;;;5109526;28;20429;-56
2022/05/04 01:22:55;;;;;;;5.72;1.83;;;;;;;;;;5109660;28;20038;-54
2022/05/04 01:25:21;;;;;;;5.38;2.20;;;;;;;;;;5109328;28;20028;-54
2022/05/04 01:27:47;;;;;;;5.45;2.03;;;;;;;;;;5109661;28;20055;-52
2022/05/04 01:30:13;;;;;;;5.82;2.58;;;;;;;;;;5109651;28;20119;-52
2022/05/04 01:32:40;;;;;;;7.75;2.10;;;;;;;;;;5109377;28;20909;-54
2022/05/04 01:35:06;;;;;;;4.88;2.30;;;;;;;;;;5109760;28;20448;-53
2022/05/04 01:37:33;;;;;;;6.93;2.08;;;;;;;;;;5109893;28;20027;-55
2022/05/04 01:40:00;;;;;;;6.45;1.95;;;;;;;;;;5108961;28;20134;-55
2022/05/04 01:42:26;;;;;;;6.10;2.22;;;;;;;;;;5109375;28;20106;-51
2022/05/04 01:44:52;;;;;;;3.53;1.70;;;;;;;;;;5109018;28;20845;-54
2022/05/04 01:47:18;;;;;;;5.70;1.80;;;;;;;;;;5109847;28;20031;-55
2022/05/04 01:49:44;;;;;;;5.68;2.22;;;;;;;;;;5109096;28;20031;-55
2022/05/04 01:52:10;;;;;;;4.45;2.55;;;;;;;;;;5109447;28;20076;-53
2022/05/04 01:54:36;;;;;;;5.57;1.77;;;;;;;;;;5108421;28;20019;-51
2022/05/04 01:57:02;;;;;;;6.72;2.10;;;;;;;;;;5108957;28;20032;-55
2022/05/04 01:59:28;;;;;;;6.10;2.15;;;;;;;;;;5109132;28;20103;-52
2022/05/04 02:01:54;;;;;;;5.63;2.03;;;;;;;;;;5108855;28;20543;-55
2022/05/04 02:04:22;;;;;;;5.80;2.00;;;;;;;;;;5108621;28;20031;-54
2022/05/04 02:06:48;;;;;;;7.25;2.13;;;;;;;;;;5109197;28;20027;-52
2022/05/04 02:09:16;;;;;;;4.97;2.42;;;;;;;;;;5108498;28;20513;-52
2022/05/04 02:11:42;;;;;;;4.25;1.67;;;;;;;;;;5109138;28;20106;-54
2022/05/04 02:14:08;;;;;;;4.60;1.80;;;;;;;;;;5108913;28;20028;-51
2022/05/04 02:16:34;;;;;;;5.13;1.73;;;;;;;;;;5108808;28;20018;-53
2022/05/04 02:19:00;;;;;;;3.85;1.80;;;;;;;;;;5108158;28;20114;-54
2022/05/04 02:21:26;;;;;;;4.40;2.00;;;;;;;;;;5108952;28;20623;-53
2022/05/04 02:23:52;;;;;;;6.40;1.67;;;;;;;;;;5108832;28;20146;-55
2022/05/04 02:26:18;;;;;;;3.95;1.75;;;;;;;;;;5108189;28;20022;-53
2022/05/04 02:28:45;;;;;;;6.03;1.95;;;;;;;;;;5108860;28;20115;-53
2022/05/04 02:31:11;;;;;;;4.57;1.95;;;;;;;;;;5107862;28;20111;-54
2022/05/04 02:33:37;;;;;;;6.90;1.92;;;;;;;;;;5108758;28;20477;-53
2022/05/04 02:38:48;;;;;;;5.55;1.75;;;;;;;;;;5088550;28;20043;-53
2022/05/04 02:41:14;;;;;;;5.57;2.45;;;;;;;;;;5103093;28;20035;-55
2022/05/04 02:43:40;;;;;;;4.05;1.75;;;;;;;;;;5108467;28;20039;-52
2022/05/04 02:46:16;;;;;;;4.43;1.75;;;;;;;;;;5108574;28;20082;-53
2022/05/04 02:48:43;;;;;;;4.47;1.85;;;;;;;;;;5108299;28;20077;-55
2022/05/04 02:51:09;;;;;;;5.68;1.55;;;;;;;;;;5108437;28;20024;-51
2022/05/04 02:53:35;;;;;;;3.88;1.88;;;;;;;;;;5108475;28;20040;-50
2022/05/04 02:56:02;;;;;;;6.50;2.03;;;;;;;;;;5108183;28;20030;-50
2022/05/04 02:58:29;;;;;;;4.88;1.90;;;;;;;;;;5108425;28;20024;-54
2022/05/04 03:00:55;;;;;;;5.57;1.80;;;;;;;;;;5108324;28;20030;-54
2022/05/04 03:03:21;;;;;;;6.38;2.00;;;;;;;;;;5108489;28;20122;-53
2022/05/04 03:05:47;;;;;;;5.78;2.17;;;;;;;;;;5108345;28;20035;-50
2022/05/04 03:08:13;;;;;;;5.25;1.70;;;;;;;;;;5108455;28;20035;-53
2022/05/04 03:13:24;;;;;;;5.05;1.88;;;;;;;;;;5107291;28;20073;-53
2022/05/04 03:15:50;;;;;;;6.10;2.03;;;;;;;;;;5108541;28;20102;-54
2022/05/04 03:18:16;;;;;;;6.35;1.80;;;;;;;;;;5107789;28;20023;-53
2022/05/04 03:20:42;;;;;;;7.55;2.47;;;;;;;;;;5111209;28;20550;-50
2022/05/04 03:23:08;;;;;;;6.53;2.08;;;;;;;;;;5111467;28;20610;-53
2022/05/04 03:25:35;;;;;;;5.45;1.90;;;;;;;;;;5112351;28;20114;-53
2022/05/04 03:28:02;;;;;;;4.45;2.08;;;;;;;;;;5112049;28;20893;-54
2022/05/04 03:30:28;;;;;;;7.47;1.65;;;;;;;;;;5111865;27;20370;-52
2022/05/04 03:32:54;;;;;;;5.30;2.03;;;;;;;;;;5111490;28;20054;-53
2022/05/04 03:35:20;;;;;;;6.45;1.98;;;;;;;;;;5111750;28;20028;-51
2022/05/04 03:37:46;;;;;;;5.32;1.95;;;;;;;;;;5111714;28;20068;-52
2022/05/04 03:40:13;;;;;;;5.18;1.95;;;;;;;;;;5111937;28;20758;-53
2022/05/04 03:42:39;;;;;;;5.43;2.30;;;;;;;;;;5111234;28;20127;-54
2022/05/04 03:45:05;;;;;;;3.85;1.75;;;;;;;;;;5111420;28;20109;-54
2022/05/04 03:47:31;;;;;;;5.97;2.40;;;;;;;;;;5111955;28;20110;-52
2022/05/04 03:49:57;;;;;;;8.10;2.42;;;;;;;;;;5111622;28;20031;-54
2022/05/04 03:52:23;;;;;;;5.97;1.83;;;;;;;;;;5111227;28;20106;-53
2022/05/04 03:54:49;;;;;;;4.60;1.80;;;;;;;;;;5111568;28;20433;-54
2022/05/04 03:57:15;;;;;;;4.50;2.13;;;;;;;;;;5111008;28;20034;-52
2022/05/04 03:59:41;;;;;;;3.92;1.65;;;;;;;;;;5111720;28;20065;-54
2022/05/04 04:02:07;;;;;;;5.68;2.13;;;;;;;;;;5111727;28;20498;-50
2022/05/04 04:04:33;;;;;;;6.00;1.70;;;;;;;;;;5111427;28;20710;-52
2022/05/04 04:06:59;;;;;;;5.82;1.75;;;;;;;;;;5111422;28;20048;-54
2022/05/04 04:09:25;;;;;;;5.20;2.25;;;;;;;;;;5110581;28;20439;-53
2022/05/04 04:11:51;;;;;;;4.82;1.65;;;;;;;;;;5111275;28;20047;-54
2022/05/04 04:14:19;;;;;;;6.13;2.13;;;;;;;;;;5110795;28;20568;-51
2022/05/04 04:16:45;;;;;;;5.47;1.92;;;;;;;;;;5109988;28;20069;-55
2022/05/04 04:19:11;;;;;;;5.43;1.92;;;;;;;;;;5110430;28;20102;-53
2022/05/04 04:21:53;;;;;;;5.40;1.50;;;;;;;;;;5109697;28;20496;-51
2022/05/04 04:24:21;;;;;;;4.72;1.42;;;;;;;;;;5108830;28;20421;-53
2022/05/04 04:26:47;;;;;;;4.80;2.00;;;;;;;;;;5109678;28;20024;-51
2022/05/04 04:29:13;;;;;;;4.82;2.00;;;;;;;;;;5110316;28;20023;-52
2022/05/04 04:31:39;;;;;;;6.00;2.45;;;;;;;;;;5109357;28;20489;-52
2022/05/04 04:34:07;;;;;;;4.43;2.00;;;;;;;;;;5109166;28;20435;-51
2022/05/04 04:36:33;;;;;;;6.68;1.88;;;;;;;;;;5107294;28;20737;-55
2022/05/04 04:38:59;;;;;;;6.40;1.92;;;;;;;;;;5109317;28;21062;-55
2022/05/04 04:41:25;;;;;;;5.28;2.03;;;;;;;;;;5109556;28;20038;-51
2022/05/04 04:43:51;;;;;;;6.97;2.10;;;;;;;;;;5109182;28;20057;-49
2022/05/04 04:46:17;;;;;;;4.70;1.85;;;;;;;;;;5108657;28;20148;-53
2022/05/04 04:48:43;;;;;;;3.97;1.48;;;;;;;;;;5110564;28;20106;-51
2022/05/04 04:51:09;;;;;;;9.80;2.38;;;;;;;;;;5109916;28;20922;-54
2022/05/04 04:53:35;;;;;;;18.35;2.88;;;;;;;;;;5110764;27;20043;-54
2022/05/04 04:56:01;;;;;;;20.17;2.95;;;;;;;;;;5109806;28;20023;-54
2022/05/04 04:58:27;;;;;;;21.88;3.30;;;;;;;;;;5110330;28;20073;-53
2022/05/04 05:00:54;;;;;;;20.75;3.30;;;;;;;;;;5110114;28;20038;-52
2022/05/04 05:03:20;;;;;;;16.08;4.03;;;;;;;;;;5110175;28;20035;-53
2022/05/04 05:05:46;;;;;;;19.17;4.18;;;;;;;;;;5109581;28;20024;-50
2022/05/04 05:08:12;;;;;;;29.05;4.05;;;;;;;;;;5110068;28;20031;-52
2022/05/04 05:10:38;;;;;;;42.45;4.97;;;;;;;;;;5109912;28;20539;-52
2022/05/04 05:13:05;;;;;;;49.70;6.35;;;;;;;;;;5110152;28;20189;-55
2022/05/04 05:18:16;;;;;;;34.05;3.80;;;;;;;;;;5108954;28;20526;-50
2022/05/04 05:20:42;;;;;;;32.35;4.43;;;;;;;;;;5107991;28;20028;-51
2022/05/04 05:23:08;;;;;;;21.45;4.13;;;;;;;;;;5108066;28;20039;-52
2022/05/04 05:25:34;;;;;;;21.45;4.13;;;;;;;;;;5109572;28;20028;-53
2022/05/04 05:28:00;;;;;;;21.52;3.58;;;;;;;;;;5109343;28;20015;-54
2022/05/04 05:30:26;;;;;;;18.98;3.97;;;;;;;;;;5109577;28;20035;-53
2022/05/04 05:32:52;;;;;;;20.50;4.40;;;;;;;;;;5109716;28;20043;-53
2022/05/04 05:35:18;;;;;;;18.98;3.90;;;;;;;;;;5109897;28;20096;-53
2022/05/04 05:37:44;;;;;;;15.57;3.45;;;;;;;;;;5109359;28;20540;-53
2022/05/04 05:40:11;;;;;;;16.63;3.13;;;;;;;;;;5109372;28;20053;-53
2022/05/04 05:42:37;;;;;;;13.00;3.80;;;;;;;;;;5108519;28;20024;-53
2022/05/04 05:45:03;;;;;;;17.98;3.35;;;;;;;;;;5109474;28;20113;-53
2022/05/04 05:47:29;;;;;;;18.60;3.30;;;;;;;;;;5108922;28;20872;-53
2022/05/04 05:49:56;;;;;;;14.30;3.33;;;;;;;;;;5108442;28;20541;-54
2022/05/04 05:52:22;;;;;;;13.43;2.92;;;;;;;;;;5107971;28;21363;-55
2022/05/04 05:54:48;;;;;;;13.95;3.63;;;;;;;;;;5105397;28;20079;-55
2022/05/04 05:57:14;;;;;;;12.35;2.78;;;;;;;;;;5108077;28;20016;-54
2022/05/04 05:59:40;;;;;;;14.98;3.42;;;;;;;;;;5105712;28;20034;-54
2022/05/04 06:02:06;;;;;;;14.73;3.35;;;;;;;;;;5106201;28;20817;-52
2022/05/04 06:04:32;;;;;;;13.85;2.78;;;;;;;;;;5108442;28;20048;-53
2022/05/04 06:06:58;;;;;;;15.35;3.38;;;;;;;;;;5108858;28;20027;-55
2022/05/04 06:09:24;;;;;;;15.88;3.88;;;;;;;;;;5109307;28;20027;-54
2022/05/04 06:11:52;;;;;;;17.08;3.58;;;;;;;;;;5108843;28;20747;-55
2022/05/04 06:14:18;;;;;;;21.60;4.65;;;;;;;;;;5108953;28;20024;-53
2022/05/04 06:16:44;;;;;;;17.60;4.88;;;;;;;;;;5108516;28;20031;-53
2022/05/04 06:19:11;;;;;;;16.20;3.40;;;;;;;;;;5107880;28;20477;-54
2022/05/04 06:21:37;;;;;;;17.20;4.60;;;;;;;;;;5107640;28;20422;-56
2022/05/04 06:24:03;;;;;;;12.35;3.72;;;;;;;;;;5107677;28;20048;-54
2022/05/04 06:26:31;;;;;;;13.23;3.60;;;;;;;;;;5108614;28;20096;-52
2022/05/04 06:28:57;;;;;;;20.42;3.72;;;;;;;;;;5106839;28;20020;-56
2022/05/04 06:34:08;;;;;;;21.70;3.63;;;;;;;;;;5108404;28;20072;-51
2022/05/04 06:36:41;;;;;;;16.55;4.07;;;;;;;;;;5108845;28;20076;-55
2022/05/04 06:39:10;;;;;;;15.20;3.63;;;;;;;;;;5108715;28;20028;-53
2022/05/04 06:41:37;;;;;;;18.65;4.50;;;;;;;;;;5108376;28;20020;-54
2022/05/04 06:44:06;;;;;;;17.23;3.38;;;;;;;;;;5107336;28;20051;-53
2022/05/04 06:46:32;;;;;;;14.77;2.95;;;;;;;;;;5107774;28;20103;-54
2022/05/04 06:48:59;;;;;;;15.02;2.75;;;;;;;;;;5108519;28;20016;-55
2022/05/04 06:51:25;;;;;;;12.20;3.00;;;;;;;;;;5108509;28;20062;-53
2022/05/04 06:53:51;;;;;;;17.90;3.65;;;;;;;;;;5108285;28;20470;-53
2022/05/04 06:56:17;;;;;;;15.13;3.22;;;;;;;;;;5111993;28;20036;-54
2022/05/04 06:58:44;;;;;;;15.68;3.67;;;;;;;;;;5112836;28;20035;-52
2022/05/04 07:01:11;;;;;;;15.75;3.13;;;;;;;;;;5113238;28;20076;-52
2022/05/04 07:03:38;;;;;;;13.98;3.22;;;;;;;;;;5111756;28;20630;-52
2022/05/04 07:06:04;;;;;;;14.48;3.80;;;;;;;;;;5108677;27;20027;-55
2022/05/04 07:08:30;;;;;;;17.85;2.83;;;;;;;;;;5109636;27;20110;-52
2022/05/04 07:10:56;;;;;;;14.02;3.17;;;;;;;;;;5110721;28;20020;-52
2022/05/04 07:13:23;;;;;;;12.82;3.67;;;;;;;;;;5110592;28;20066;-54
2022/05/04 07:15:49;;;;;;;12.00;3.00;;;;;;;;;;5110481;28;20019;-54
2022/05/04 07:18:16;;;;;;;8.25;2.47;;;;;;;;;;5110825;28;20520;-54
2022/05/04 07:20:41;;;;;;;14.25;3.03;;;;;;;;;;5110960;28;20102;-55
2022/05/04 07:23:07;;;;;;;11.05;2.80;;;;;;;;;;5110895;28;20538;-54
2022/05/04 07:25:35;;;;;;;23.67;3.35;;;;;;;;;;5110126;28;20102;-56
2022/05/04 07:28:01;;;;;;;11.55;2.30;;;;;;;;;;5111907;28;20115;-51
2022/05/04 07:30:27;;;;;;;13.25;2.30;;;;;;;;;;5110120;28;20427;-53
2022/05/04 07:32:52;;;;;;;11.32;2.47;;;;;;;;;;5110025;28;20044;-53
2022/05/04 07:35:18;;;;;;;13.82;3.05;;;;;;;;;;5109187;28;20020;-51
2022/05/04 07:37:46;;;;;;;18.73;3.75;;;;;;;;;;5110761;28;20636;-51
2022/05/04 07:42:57;;;;;;;9.32;2.20;;;;;;;;;;5110072;28;20042;-52
2022/05/04 07:45:23;;;;;;;10.27;2.03;;;;;;;;;;5111415;28;20023;-49
2022/05/04 07:47:49;;;;;;;15.57;3.38;;;;;;;;;;5111883;28;20069;-53
2022/05/04 07:50:17;;;;;;;9.98;2.13;;;;;;;;;;5111776;28;20136;-53
2022/05/04 07:52:43;;;;;;;16.63;2.95;;;;;;;;;;5111839;28;20039;-50
2022/05/04 07:55:10;;;;;;;8.50;2.13;;;;;;;;;;5111362;28;20092;-51
2022/05/04 07:57:36;;;;;;;7.93;2.30;;;;;;;;;;5111282;28;20026;-55
2022/05/04 08:05:39;;;;;;;5.43;1.95;;;;;;;;;;5111441;28;20077;-54
2022/05/04 08:08:05;;;;;;;13.85;2.72;;;;;;;;;;5111289;28;20131;-55
2022/05/04 08:10:32;;;;;;;11.63;2.58;;;;;;;;;;5111198;28;20102;-53
2022/05/04 08:13:01;;;;;;;7.40;2.28;;;;;;;;;;5102293;28;20107;-54
2022/05/04 08:15:29;;;;;;;10.05;2.20;;;;;;;;;;5100240;28;20024;-52
2022/05/04 08:17:57;;;;;;;12.55;2.28;;;;;;;;;;5110574;28;20039;-51
2022/05/04 08:20:24;;;;;;;11.93;2.35;;;;;;;;;;5110672;28;20024;-55
2022/05/04 08:22:50;;;;;;;10.50;2.17;;;;;;;;;;5115783;27;20160;-52
2022/05/04 08:25:19;;;;;;;10.93;2.30;;;;;;;;;;5110727;27;20111;-55
2022/05/04 08:27:46;;;;;;;11.43;2.75;;;;;;;;;;5110952;28;20039;-54
2022/05/04 08:30:13;;;;;;;14.18;2.85;;;;;;;;;;5110617;28;20119;-53
2022/05/04 08:32:39;;;;;;;11.40;2.28;;;;;;;;;;5110398;28;20036;-51
2022/05/04 08:35:05;;;;;;;8.68;2.78;;;;;;;;;;5111175;28;20023;-52
2022/05/04 08:37:31;;;;;;;11.05;2.22;;;;;;;;;;5110947;27;20096;-52
2022/05/04 08:39:57;;;;;;;8.98;2.75;;;;;;;;;;5110372;28;20188;-55
2022/05/04 08:42:24;;;;;;;12.80;2.70;;;;;;;;;;5110463;28;20731;-54
2022/05/04 08:44:55;;;;;;;10.07;2.17;;;;;;;;;;5110172;28;20054;-56
2022/05/04 08:47:22;;;;;;;6.47;2.38;;;;;;;;;;5110400;28;20027;-55
2022/05/04 08:49:48;;;;;;;9.00;3.35;;;;;;;;;;5110816;28;20550;-55
2022/05/04 08:52:15;;;;;;;7.82;2.58;;;;;;;;;;5110153;28;20024;-56
2022/05/04 08:54:42;;;;;;;7.35;1.83;;;;;;;;;;5110803;28;20401;-53
2022/05/04 08:57:08;;;;;;;9.85;2.33;;;;;;;;;;5109794;28;20023;-55
2022/05/04 08:59:34;;;;;;;7.55;1.88;;;;;;;;;;5110308;28;20073;-52
2022/05/04 09:02:00;;;;;;;9.02;2.25;;;;;;;;;;5110331;28;20028;-54
2022/05/04 09:04:26;;;;;;;6.65;2.13;;;;;;;;;;5109575;28;20053;-55
2022/05/04 09:06:53;;;;;;;7.75;2.42;;;;;;;;;;5110105;28;20529;-54
2022/05/04 09:09:19;;;;;;;9.35;2.05;;;;;;;;;;5109844;28;20755;-55
2022/05/04 09:11:46;;;;;;;8.35;2.65;;;;;;;;;;5110123;28;20032;-52
2022/05/04 09:14:12;;;;;;;6.43;1.88;;;;;;;;;;5109339;28;20481;-54
2022/05/04 09:16:39;;;;;;;8.43;2.60;;;;;;;;;;5109937;28;20046;-55
2022/05/04 09:19:12;;;;;;;10.95;2.60;;;;;;;;;;5108801;28;20881;-56
2022/05/04 09:21:39;;;;;;;7.43;2.10;;;;;;;;;;5109360;28;20032;-54
2022/05/04 09:24:06;;;;;;;7.90;2.00;;;;;;;;;;5109155;28;20154;-53
2022/05/04 09:26:33;;;;;;;4.40;1.38;;;;;;;;;;5110053;28;20115;-55
2022/05/04 09:28:59;;;;;;;5.90;1.88;;;;;;;;;;5109650;28;20110;-56
2022/05/04 09:31:26;;;;;;;8.43;1.98;;;;;;;;;;5109048;28;20066;-55
2022/05/04 09:33:53;;;;;;;7.88;1.90;;;;;;;;;;5109373;28;20490;-58
2022/05/04 09:36:31;;;;;;;8.40;2.00;;;;;;;;;;5109019;28;20035;-54
2022/05/04 09:47:19;;;;;;;9.73;2.10;;;;;;;;;;5109685;28;20041;-55
2022/05/04 09:49:46;;;;;;;13.00;1.95;;;;;;;;;;5108953;28;20065;-55
2022/05/04 09:52:14;;;;;;;7.55;1.80;;;;;;;;;;5108754;28;20051;-55
2022/05/04 09:54:40;;;;;;;9.75;2.08;;;;;;;;;;5109141;28;20027;-54
2022/05/04 09:57:07;;;;;;;9.63;1.77;;;;;;;;;;5109031;28;20027;-53
2022/05/04 09:59:34;;;;;;;8.18;1.67;;;;;;;;;;5109179;28;20040;-54
2022/05/04 10:02:02;;;;;;;10.20;1.95;;;;;;;;;;5108888;28;20034;-56
2022/05/04 10:04:28;;;;;;;7.85;2.08;;;;;;;;;;5108258;28;20130;-56
2022/05/04 10:06:55;;;;;;;8.07;2.03;;;;;;;;;;5109223;28;20031;-55
2022/05/04 10:09:22;;;;;;;7.78;1.85;;;;;;;;;;5108757;28;20451;-49
2022/05/04 10:11:53;;;;;;;10.13;2.10;;;;;;;;;;5108490;28;20514;-51
2022/05/04 10:14:20;;;;;;;5.13;1.52;;;;;;;;;;5108686;28;20020;-55
2022/05/04 10:16:52;;;;;;;8.32;1.65;;;;;;;;;;5108456;28;20119;-53
2022/05/04 10:19:20;;;;;;;6.90;2.10;;;;;;;;;;5108529;28;20477;-54
2022/05/04 10:21:49;;;;;;;11.32;1.98;;;;;;;;;;5108863;28;20050;-54
2022/05/04 10:24:16;;;;;;;10.63;1.85;;;;;;;;;;5108727;28;20040;-54
2022/05/04 10:26:45;;;;;;;10.77;2.22;;;;;;;;;;5108791;28;20024;-55
2022/05/04 10:32:28;;;;;;;11.52;2.40;;;;;;;;;;5087439;28;20550;-51
2022/05/04 10:35:09;;;;;;;10.18;2.33;;;;;;;;;;5108711;28;20116;-53
2022/05/04 10:37:51;;;;;;;9.75;2.15;;;;;;;;;;5107775;28;20063;-51
2022/05/04 10:40:22;;;;;;;5.70;2.15;;;;;;;;;;5108046;28;20445;-51
2022/05/04 10:42:58;;;;;;;7.35;1.98;;;;;;;;;;5107883;28;20110;-55
2022/05/04 10:45:29;;;;;;;8.88;1.83;;;;;;;;;;5108700;28;20122;-52
2022/05/04 10:48:02;;;;;;;8.60;2.20;;;;;;;;;;5108415;28;20226;-49
2022/05/04 10:50:46;;;;;;;11.55;2.42;;;;;;;;;;5108151;28;20027;-50
2022/05/04 10:53:24;;;;;;;14.02;3.08;;;;;;;;;;5107677;28;20036;-54
2022/05/04 10:55:55;;;;;;;9.07;2.08;;;;;;;;;;5108595;28;20016;-54
2022/05/04 10:58:30;;;;;;;17.40;2.65;;;;;;;;;;5107948;28;20034;-55
2022/05/04 11:01:13;;;;;;;13.02;2.45;;;;;;;;;;5108769;28;20027;-52
2022/05/04 11:03:50;;;;;;;11.93;2.22;;;;;;;;;;5108163;28;20058;-54
2022/05/04 11:06:27;;;;;;;8.00;2.72;;;;;;;;;;5108680;28;20078;-53
2022/05/04 11:08:56;;;;;;;3.80;1.80;;;;;;;;;;5107219;28;20562;-52
2022/05/04 11:11:22;;;;;;;9.70;2.50;;;;;;;;;;5107321;28;20031;-54
2022/05/04 11:13:48;;;;;;;11.35;2.75;;;;;;;;;;5107868;28;20053;-54
2022/05/04 11:16:15;;;;;;;7.32;2.35;;;;;;;;;;5108313;28;20509;-52
2022/05/04 11:18:41;;;;;;;10.93;2.17;;;;;;;;;;5107975;28;20051;-52
2022/05/04 11:21:12;;;;;;;8.25;2.45;;;;;;;;;;5107856;28;20024;-56
2022/05/04 11:23:38;;;;;;;7.60;2.00;;;;;;;;;;5107988;28;20027;-52
2022/05/04 11:26:06;;;;;;;5.38;1.90;;;;;;;;;;5108204;28;20033;-55
2022/05/04 11:28:34;;;;;;;16.70;2.35;;;;;;;;;;5108097;28;20022;-55
2022/05/04 11:31:00;;;;;;;12.75;2.42;;;;;;;;;;5107234;28;20024;-53
2022/05/04 11:33:26;;;;;;;4.07;1.80;;;;;;;;;;5107402;28;20031;-52
2022/05/04 11:35:54;;;;;;;14.80;2.63;;;;;;;;;;5107712;28;20513;-54
2022/05/04 11:38:20;;;;;;;8.60;2.25;;;;;;;;;;5106870;28;20127;-55
2022/05/04 11:40:47;;;;;;;11.70;2.35;;;;;;;;;;5107743;28;20023;-55
2022/05/04 11:43:22;;;;;;;10.98;2.20;;;;;;;;;;5109970;28;20051;-54
2022/05/04 11:45:49;;;;;;;8.52;2.38;;;;;;;;;;5101016;28;20520;-54
2022/05/04 11:48:18;;;;;;;7.25;1.70;;;;;;;;;;5110715;28;20023;-56
2022/05/04 11:50:45;;;;;;;12.60;2.10;;;;;;;;;;5111398;28;20037;-54
2022/05/04 11:53:12;;;;;;;11.50;2.05;;;;;;;;;;5111069;27;20136;-55
2022/05/04 11:55:38;;;;;;;8.77;1.77;;;;;;;;;;5110872;28;20024;-53
2022/05/04 11:58:09;;;;;;;5.68;1.88;;;;;;;;;;5111457;28;20401;-55
2022/05/04 12:00:38;;;;;;;9.50;2.13;;;;;;;;;;5108505;28;20409;-55
2022/05/04 12:03:05;;;;;;;10.98;2.53;;;;;;;;;;5101933;28;20507;-56
2022/05/04 12:05:32;;;;;;;13.18;2.83;;;;;;;;;;5107806;28;20131;-55
2022/05/04 12:07:59;;;;;;;9.23;2.22;;;;;;;;;;5110528;28;20031;-54
2022/05/04 12:10:25;;;;;;;12.35;2.92;;;;;;;;;;5110344;28;20114;-54
2022/05/04 12:12:51;;;;;;;14.10;4.57;;;;;;;;;;5110625;28;20023;-50
2022/05/04 12:15:17;;;;;;;19.65;5.18;;;;;;;;;;5110503;28;20028;-56
2022/05/04 12:17:44;;;;;;;19.48;4.72;;;;;;;;;;5110080;28;20028;-56
2022/05/04 12:20:10;;;;;;;23.13;4.15;;;;;;;;;;5109735;28;20035;-55
2022/05/04 12:22:36;;;;;;;18.55;5.43;;;;;;;;;;5110714;28;20031;-54
2022/05/04 12:25:04;;;;;;;22.40;6.70;;;;;;;;;;5109961;28;20035;-53
2022/05/04 12:27:38;;;;;;;22.80;6.53;;;;;;;;;;5110287;28;20032;-52
2022/05/04 12:33:08;;;;;;;15.25;6.00;;;;;;;;;;5104295;27;20124;-53
2022/05/04 12:35:46;;;;;;;17.95;5.25;;;;;;;;;;5100746;28;20051;-51
2022/05/04 12:38:15;;;;;;;16.50;6.65;;;;;;;;;;5110086;28;20162;-55
2022/05/04 12:40:42;;;;;;;15.85;5.80;;;;;;;;;;5110111;28;20023;-50
2022/05/04 12:43:08;;;;;;;18.27;6.30;;;;;;;;;;5110019;28;20470;-53
2022/05/04 12:45:35;;;;;;;15.65;5.97;;;;;;;;;;5109750;28;20122;-54
2022/05/04 12:48:01;;;;;;;13.85;5.25;;;;;;;;;;5105290;28;20069;-53
2022/05/04 12:50:29;;;;;;;15.70;5.90;;;;;;;;;;5098344;28;20389;-52
2022/05/04 12:52:56;;;;;;;19.20;5.78;;;;;;;;;;5098546;28;20049;-53
2022/05/04 12:56:45;;;;;;;13.77;5.18;;;;;;;;;;5109460;28;20023;-55
2022/05/04 12:58:13;;;;;;;10.57;5.00;;;;;;;;;;5098988;28;20032;-50
2022/05/04 13:00:39;;;;;;;14.50;4.38;;;;;;;;;;5110029;28;20084;-54
2022/05/04 13:03:08;;;;;;;13.43;4.95;;;;;;;;;;5109730;28;20588;-52
2022/05/04 13:05:34;;;;;;;10.20;4.88;;;;;;;;;;5109797;28;20388;-53
2022/05/04 13:08:00;;;;;;;9.10;4.65;;;;;;;;;;5109491;28;20529;-54
2022/05/04 13:10:27;;;;;;;16.40;5.07;;;;;;;;;;5109611;28;20140;-54
2022/05/04 13:12:53;;;;;;;11.07;4.55;;;;;;;;;;5109564;28;20462;-55
2022/05/04 13:15:19;;;;;;;8.85;4.22;;;;;;;;;;5109031;28;20473;-52
2022/05/04 13:17:45;;;;;;;10.13;4.68;;;;;;;;;;5109170;28;20027;-54
2022/05/04 13:20:11;;;;;;;8.00;3.92;;;;;;;;;;5109358;28;20069;-52
2022/05/04 13:22:37;;;;;;;10.43;4.40;;;;;;;;;;5109242;28;20092;-53
2022/05/04 13:25:03;;;;;;;11.23;4.07;;;;;;;;;;5109570;28;20128;-53
2022/05/04 13:27:29;;;;;;;11.38;4.05;;;;;;;;;;5108737;28;20130;-52
2022/05/04 13:29:55;;;;;;;15.20;4.07;;;;;;;;;;5109308;28;20035;-52
2022/05/04 13:32:21;;;;;;;8.38;4.03;;;;;;;;;;5108694;28;20569;-53
2022/05/04 13:34:47;;;;;;;9.70;4.20;;;;;;;;;;5108919;28;20156;-52
2022/05/04 13:37:13;;;;;;;12.38;4.05;;;;;;;;;;5108480;28;20032;-50
2022/05/04 13:39:39;;;;;;;7.90;3.70;;;;;;;;;;5108867;28;20094;-53
2022/05/04 13:42:05;;;;;;;14.50;5.18;;;;;;;;;;5109035;28;20150;-51
2022/05/04 13:44:31;;;;;;;10.35;4.43;;;;;;;;;;5109116;28;20746;-53
2022/05/04 13:46:57;;;;;;;11.55;4.85;;;;;;;;;;5108577;28;20138;-53
2022/05/04 13:49:23;;;;;;;11.82;4.40;;;;;;;;;;5109092;28;20800;-52
2022/05/04 13:54:45;;;;;;;15.40;4.72;;;;;;;;;;5081457;28;20040;-52
2022/05/04 13:57:11;;;;;;;21.30;4.82;;;;;;;;;;5089647;28;20032;-48
2022/05/04 13:59:37;;;;;;;10.75;5.55;;;;;;;;;;5108219;28;20098;-51
2022/05/04 14:02:04;;;;;;;14.45;4.60;;;;;;;;;;5108797;28;20466;-51
2022/05/04 14:04:30;;;;;;;12.75;4.25;;;;;;;;;;5107872;28;20043;-51
2022/05/04 14:06:56;;;;;;;14.60;5.75;;;;;;;;;;5109146;28;20028;-53
2022/05/04 14:09:22;;;;;;;12.57;4.68;;;;;;;;;;5107718;28;20466;-54
2022/05/04 14:11:48;;;;;;;12.57;4.32;;;;;;;;;;5108247;28;20039;-55
2022/05/04 14:16:59;;;;;;;9.68;4.13;;;;;;;;;;5108687;28;20116;-55
2022/05/04 14:19:25;;;;;;;9.57;4.20;;;;;;;;;;5108569;28;20378;-54
2022/05/04 14:21:52;;;;;;;13.43;4.32;;;;;;;;;;5108697;28;20028;-52
2022/05/04 14:24:18;;;;;;;11.25;4.80;;;;;;;;;;5107778;28;20143;-53
2022/05/04 14:26:44;;;;;;;8.88;3.88;;;;;;;;;;5108076;28;20405;-54
2022/05/04 14:29:11;;;;;;;13.68;4.55;;;;;;;;;;5107014;28;20034;-52
2022/05/04 14:31:38;;;;;;;8.05;3.80;;;;;;;;;;5106959;28;20052;-53
2022/05/04 14:34:04;;;;;;;9.45;3.45;;;;;;;;;;5106191;28;20106;-54
2022/05/04 14:36:30;;;;;;;7.28;3.63;;;;;;;;;;5101650;28;20023;-52
2022/05/04 14:38:56;;;;;;;8.23;3.25;;;;;;;;;;5096299;28;20507;-50
2022/05/04 14:41:22;;;;;;;9.00;4.10;;;;;;;;;;5107554;28;20016;-54
2022/05/04 14:43:48;;;;;;;11.77;5.97;;;;;;;;;;5107977;28;20069;-53
2022/05/04 14:46:14;;;;;;;10.65;4.78;;;;;;;;;;5108097;28;20470;-54
2022/05/04 14:48:40;;;;;;;12.48;5.53;;;;;;;;;;5108509;28;20088;-54
2022/05/04 14:51:06;;;;;;;9.10;4.82;;;;;;;;;;5106763;28;20147;-54
2022/05/04 14:53:32;;;;;;;11.20;5.85;;;;;;;;;;5106902;28;20022;-50
2022/05/04 14:55:58;;;;;;;9.20;6.10;;;;;;;;;;5108036;28;20036;-54
2022/05/04 14:58:24;;;;;;;15.30;6.07;;;;;;;;;;5108573;28;20137;-54
2022/05/04 15:00:51;;;;;;;13.38;6.22;;;;;;;;;;5107717;28;20028;-53
2022/05/04 15:06:06;;;;;;;15.07;7.25;;;;;;;;;;5107538;28;20060;-53
2022/05/04 15:08:32;;;;;;;;;;;;;;;;;;5109038;28;20028;-51
2022/05/04 15:10:58;;;;;;;10.75;6.00;;;;;;;;;;5108090;28;19962;-52
2022/05/04 15:13:25;;;;;;;12.90;6.53;;;;;;;;;;5107861;28;20487;-50
2022/05/04 15:15:51;;;;;;;12.18;6.82;;;;;;;;;;5108321;28;20525;-54
2022/05/04 15:18:17;;;;;;;9.70;5.97;;;;;;;;;;5111523;28;20032;-52
2022/05/04 15:20:43;;;;;;;11.38;6.18;;;;;;;;;;5111444;28;20030;-51
2022/05/04 15:23:09;;;;;;;13.40;6.85;;;;;;;;;;5111300;27;20024;-53